createdAt,value
2017-09-10T00:00:51.602Z,71.20
2017-09-10T00:03:20.486Z,71.30
2017-09-10T00:05:48.030Z,71.40
2017-09-10T00:08:15.547Z,71.50
2017-09-10T00:10:43.112Z,71.70
2017-09-10T00:13:11.048Z,71.90
2017-09-10T00:15:38.886Z,72.00
2017-09-10T00:18:06.442Z,72.10
2017-09-10T00:20:33.953Z,72.10
2017-09-10T00:23:01.506Z,72.00
2017-09-10T00:25:29.020Z,72.20
2017-09-10T00:27:56.847Z,72.40
2017-09-10T00:30:24.359Z,72.70
2017-09-10T00:32:51.878Z,72.70
2017-09-10T00:35:20.196Z,72.90
2017-09-10T00:37:53.055Z,73.00
2017-09-10T00:40:20.951Z,73.00
2017-09-10T00:42:48.499Z,73.10
2017-09-10T00:45:16.016Z,73.20
2017-09-10T00:50:58.862Z,73.40
2017-09-10T00:53:27.171Z,73.40
2017-09-10T00:55:54.783Z,73.50
2017-09-10T00:58:22.370Z,73.60
2017-09-10T01:00:50.690Z,73.90
2017-09-10T01:03:18.552Z,74.00
2017-09-10T01:05:46.220Z,74.00
2017-09-10T01:08:13.734Z,74.00
2017-09-10T01:10:42.040Z,74.20
2017-09-10T01:13:09.570Z,74.30
2017-09-10T01:15:38.138Z,74.00
2017-09-10T01:18:07.655Z,74.30
2017-09-10T01:20:35.159Z,74.30
2017-09-10T01:23:02.714Z,74.30
2017-09-10T01:25:30.235Z,74.40
2017-09-10T01:27:58.070Z,74.40
2017-09-10T01:30:25.617Z,74.30
2017-09-10T01:32:53.136Z,74.40
2017-09-10T01:35:21.431Z,74.40
2017-09-10T01:37:48.959Z,74.40
2017-09-10T01:40:16.757Z,74.40
2017-09-10T01:42:44.401Z,74.50
2017-09-10T01:45:12.696Z,74.50
2017-09-10T01:47:40.245Z,74.50
2017-09-10T01:50:07.849Z,74.50
2017-09-10T01:52:35.647Z,74.50
2017-09-10T01:55:03.187Z,74.50
2017-09-10T01:57:30.716Z,74.70
2017-09-10T01:59:58.271Z,74.70
2017-09-10T02:02:25.848Z,74.70
2017-09-10T02:04:53.823Z,74.80
2017-09-10T02:07:21.352Z,74.90
2017-09-10T02:09:49.623Z,75.10
2017-09-10T02:12:17.946Z,75.10
2017-09-10T02:14:45.476Z,75.10
2017-09-10T02:17:13.378Z,75.10
2017-09-10T02:19:40.900Z,75.20
2017-09-10T02:22:08.439Z,75.50
2017-09-10T02:24:37.743Z,75.40
2017-09-10T02:27:06.020Z,75.40
2017-09-10T02:29:34.605Z,75.40
2017-09-10T02:32:02.902Z,75.50
2017-09-10T02:34:30.409Z,75.50
2017-09-10T02:36:57.942Z,75.50
2017-09-10T02:39:25.460Z,75.60
2017-09-10T02:41:54.065Z,75.70
2017-09-10T02:44:21.594Z,76.50
2017-09-10T02:46:49.380Z,75.50
2017-09-10T02:49:17.682Z,75.70
2017-09-10T02:51:45.215Z,75.80
2017-09-10T02:54:13.035Z,75.90
2017-09-10T02:56:40.563Z,75.90
2017-09-10T02:59:08.079Z,76.00
2017-09-10T03:01:36.317Z,76.10
2017-09-10T03:04:03.828Z,76.10
2017-09-10T03:06:32.411Z,76.50
2017-09-10T03:09:00.720Z,76.50
2017-09-10T03:11:28.237Z,76.50
2017-09-10T03:13:55.786Z,76.50
2017-09-10T03:16:23.322Z,76.60
2017-09-10T03:18:51.967Z,76.90
2017-09-10T03:21:19.495Z,76.90
2017-09-10T03:23:47.012Z,77.10
2017-09-10T03:26:14.570Z,77.10
2017-09-10T03:28:42.081Z,77.20
2017-09-10T03:31:09.917Z,77.30
2017-09-10T03:33:37.436Z,77.80
2017-09-10T03:36:04.946Z,77.40
2017-09-10T03:38:32.487Z,77.40
2017-09-10T03:41:00.001Z,77.50
2017-09-10T03:43:28.022Z,77.60
2017-09-10T03:45:55.584Z,77.70
2017-09-10T03:48:23.144Z,77.80
2017-09-10T03:50:50.683Z,77.80
2017-09-10T03:53:18.200Z,77.80
2017-09-10T03:55:46.796Z,77.70
2017-09-10T03:58:15.109Z,78.50
2017-09-10T04:00:43.138Z,77.80
2017-09-10T04:03:10.680Z,77.70
2017-09-10T04:05:38.203Z,77.80
2017-09-10T04:08:06.194Z,77.80
2017-09-10T04:10:33.696Z,77.80
2017-09-10T04:13:02.046Z,77.70
2017-09-10T04:15:29.611Z,77.70
2017-09-10T04:18:18.442Z,77.70
2017-09-10T04:20:46.251Z,77.60
2017-09-10T04:23:13.794Z,77.60
2017-09-10T04:25:41.306Z,77.60
2017-09-10T04:28:09.615Z,77.50
2017-09-10T04:30:37.148Z,77.60
2017-09-10T04:33:04.957Z,77.60
2017-09-10T04:35:32.497Z,77.60
2017-09-10T04:38:00.020Z,77.60
2017-09-10T04:40:28.318Z,77.70
2017-09-10T04:42:57.767Z,77.70
2017-09-10T04:45:25.595Z,77.70
2017-09-10T04:47:53.131Z,77.80
2017-09-10T04:50:21.422Z,77.90
2017-09-10T04:52:49.557Z,77.90
2017-09-10T04:55:17.851Z,78.00
2017-09-10T04:57:45.772Z,78.00
2017-09-10T05:00:13.295Z,78.00
2017-09-10T05:02:40.823Z,77.80
2017-09-10T05:05:09.160Z,77.80
2017-09-10T05:07:36.665Z,77.80
2017-09-10T05:10:04.500Z,77.80
2017-09-10T05:12:32.019Z,77.70
2017-09-10T05:14:59.527Z,77.60
2017-09-10T05:17:27.070Z,77.70
2017-09-10T05:19:54.589Z,78.00
2017-09-10T05:22:23.202Z,78.00
2017-09-10T05:24:51.513Z,78.00
2017-09-10T05:27:19.020Z,78.00
2017-09-10T05:29:46.611Z,78.00
2017-09-10T05:32:14.119Z,77.90
2017-09-10T05:34:42.007Z,77.90
2017-09-10T05:37:09.515Z,77.90
2017-09-10T05:39:39.055Z,77.70
2017-09-10T05:42:07.698Z,77.50
2017-09-10T05:44:35.220Z,77.40
2017-09-10T05:47:02.740Z,77.40
2017-09-10T05:49:30.606Z,77.60
2017-09-10T05:51:58.142Z,77.50
2017-09-10T05:54:26.514Z,77.50
2017-09-10T05:56:54.397Z,77.20
2017-09-10T05:59:21.925Z,77.30
2017-09-10T06:01:49.469Z,77.20
2017-09-10T06:04:18.103Z,77.30
2017-09-10T06:06:45.629Z,77.30
2017-09-10T06:09:13.164Z,77.30
2017-09-10T06:11:41.778Z,77.30
2017-09-10T06:14:09.289Z,77.30
2017-09-10T06:16:36.810Z,77.40
2017-09-10T06:19:04.811Z,77.40
2017-09-10T06:21:32.353Z,77.30
2017-09-10T06:23:59.872Z,77.30
2017-09-10T06:26:27.777Z,77.10
2017-09-10T06:28:55.304Z,77.10
2017-09-10T06:31:22.859Z,77.00
2017-09-10T06:33:51.471Z,76.90
2017-09-10T06:36:19.019Z,76.90
2017-09-10T06:38:46.548Z,76.90
2017-09-10T06:41:15.187Z,77.00
2017-09-10T06:43:42.694Z,76.90
2017-09-10T06:46:10.994Z,76.60
2017-09-10T06:48:39.442Z,76.70
2017-09-10T06:51:06.991Z,76.50
2017-09-10T06:53:34.569Z,76.30
2017-09-10T06:56:02.865Z,75.40
2017-09-10T06:58:30.431Z,75.50
2017-09-10T07:00:58.907Z,75.30
2017-09-10T07:03:26.432Z,75.10
2017-09-10T07:05:54.207Z,75.10
2017-09-10T07:08:21.735Z,74.80
2017-09-10T07:10:49.312Z,74.80
2017-09-10T07:13:16.815Z,74.80
2017-09-10T07:15:44.623Z,74.60
2017-09-10T07:18:12.157Z,74.80
2017-09-10T07:20:39.690Z,74.70
2017-09-10T07:23:08.014Z,74.80
2017-09-10T07:25:40.426Z,74.70
2017-09-10T07:28:09.079Z,74.70
2017-09-10T07:30:36.606Z,74.70
2017-09-10T07:33:04.123Z,74.80
2017-09-10T07:35:31.801Z,74.80
2017-09-10T07:37:59.318Z,74.80
2017-09-10T07:40:27.182Z,74.80
2017-09-10T07:42:54.725Z,74.60
2017-09-10T07:45:22.781Z,74.60
2017-09-10T07:47:51.094Z,74.60
2017-09-10T07:50:18.634Z,74.60
2017-09-10T07:52:46.618Z,74.60
2017-09-10T07:55:14.179Z,74.70
2017-09-10T07:57:45.111Z,74.60
2017-09-10T08:00:12.673Z,74.30
2017-09-10T08:02:40.224Z,73.90
2017-09-10T08:05:08.093Z,73.70
2017-09-10T08:07:54.195Z,73.10
2017-09-10T08:10:22.091Z,72.50
2017-09-10T08:12:50.410Z,72.50
2017-09-10T08:15:18.695Z,72.80
2017-09-10T08:17:47.025Z,72.90
2017-09-10T08:20:14.544Z,72.90
2017-09-10T08:22:42.390Z,72.80
2017-09-10T08:25:10.692Z,72.70
2017-09-10T08:27:39.126Z,72.70
2017-09-10T08:30:06.675Z,72.70
2017-09-10T08:32:34.248Z,72.70
2017-09-10T08:35:02.087Z,71.90
2017-09-10T08:37:29.632Z,71.60
2017-09-10T08:39:57.183Z,71.50
2017-09-10T08:42:38.617Z,70.00
2017-09-10T08:45:06.156Z,69.90
2017-09-10T08:47:34.022Z,69.80
2017-09-10T08:50:01.607Z,69.50
2017-09-10T08:52:29.128Z,68.20
2017-09-10T08:54:56.697Z,68.10
2017-09-10T08:57:24.265Z,68.00
2017-09-10T08:59:52.194Z,67.70
2017-09-10T09:02:19.764Z,67.20
2017-09-10T09:04:47.305Z,66.70
2017-09-10T09:07:15.656Z,67.30
2017-09-10T09:09:43.243Z,66.40
2017-09-10T09:12:11.059Z,66.60
2017-09-10T09:14:38.599Z,66.50
2017-09-10T09:17:06.172Z,66.20
2017-09-10T09:19:34.767Z,65.60
2017-09-10T09:22:02.298Z,64.50
2017-09-10T09:24:30.226Z,63.80
2017-09-10T09:26:57.806Z,63.40
2017-09-10T09:29:36.741Z,63.10
2017-09-10T09:32:04.331Z,63.00
2017-09-10T09:34:31.906Z,63.00
2017-09-10T09:36:59.553Z,62.70
2017-09-10T09:39:27.258Z,62.70
2017-09-10T09:41:55.230Z,62.60
2017-09-10T09:44:22.803Z,62.50
2017-09-10T09:46:50.421Z,62.10
2017-09-10T09:49:19.960Z,62.10
2017-09-10T09:51:47.515Z,61.90
2017-09-10T09:54:15.424Z,61.60
2017-09-10T09:56:43.038Z,61.70
2017-09-10T09:59:23.383Z,61.10
2017-09-10T10:01:50.916Z,60.40
2017-09-10T10:04:18.493Z,60.40
2017-09-10T10:06:46.090Z,59.90
2017-09-10T10:09:13.637Z,59.10
2017-09-10T10:11:48.178Z,58.60
2017-09-10T10:14:15.739Z,57.90
2017-09-10T10:16:43.268Z,58.10
2017-09-10T10:19:11.581Z,58.50
2017-09-10T10:21:39.136Z,58.50
2017-09-10T10:24:06.974Z,58.30
2017-09-10T10:26:34.557Z,57.30
2017-09-10T10:29:02.094Z,57.10
2017-09-10T10:31:29.647Z,56.90
2017-09-10T10:33:57.180Z,56.80
2017-09-10T10:36:25.907Z,56.20
2017-09-10T10:38:53.432Z,56.20
2017-09-10T10:41:21.865Z,56.10
2017-09-10T10:43:49.418Z,56.40
2017-09-10T10:46:16.982Z,56.60
2017-09-10T10:48:46.708Z,57.10
2017-09-10T10:51:14.270Z,57.20
2017-09-10T10:53:41.832Z,57.20
2017-09-10T10:56:09.509Z,57.10
2017-09-10T10:58:37.056Z,57.20
2017-09-10T11:01:04.923Z,57.30
2017-09-10T11:03:33.250Z,57.20
2017-09-10T11:06:00.810Z,57.10
2017-09-10T11:08:28.374Z,57.20
2017-09-10T11:10:55.948Z,57.60
2017-09-10T11:13:23.893Z,57.10
2017-09-10T11:15:51.491Z,57.10
2017-09-10T11:18:19.085Z,57.00
2017-09-10T11:20:46.657Z,56.80
2017-09-10T11:23:14.309Z,56.70
2017-09-10T11:25:42.265Z,56.50
2017-09-10T11:28:09.898Z,56.30
2017-09-10T11:30:37.537Z,56.20
2017-09-10T11:33:05.172Z,56.20
2017-09-10T11:35:32.757Z,56.20
2017-09-10T11:38:03.766Z,55.10
2017-09-10T11:40:31.485Z,54.70
2017-09-10T11:42:59.301Z,54.20
2017-09-10T11:45:38.723Z,53.90
2017-09-10T11:48:06.304Z,53.60
2017-09-10T11:50:34.299Z,53.30
2017-09-10T11:53:01.987Z,53.00
2017-09-10T11:55:38.378Z,53.10
2017-09-10T11:58:05.972Z,52.80
2017-09-10T12:00:33.568Z,52.90
2017-09-10T12:03:01.388Z,52.80
2017-09-10T12:05:28.945Z,52.20
2017-09-10T12:07:56.506Z,52.10
2017-09-10T12:10:24.347Z,52.20
2017-09-10T12:12:51.896Z,52.40
2017-09-10T12:15:19.448Z,52.60
2017-09-10T12:17:47.375Z,53.30
2017-09-10T12:20:14.950Z,53.80
2017-09-10T12:22:43.300Z,54.90
2017-09-10T12:25:11.152Z,54.90
2017-09-10T12:27:38.730Z,55.30
2017-09-10T12:30:06.316Z,55.90
2017-09-10T12:32:34.302Z,56.20
2017-09-10T12:35:02.608Z,56.80
2017-09-10T12:37:30.508Z,56.80
2017-09-10T12:40:08.352Z,57.10
2017-09-10T12:42:36.702Z,57.30
2017-09-10T12:45:04.670Z,57.40
2017-09-10T12:47:32.217Z,57.50
2017-09-10T12:49:59.793Z,57.50
2017-09-10T12:52:28.143Z,57.60
2017-09-10T12:54:55.719Z,57.70
2017-09-10T12:57:24.524Z,56.90
2017-09-10T12:59:52.089Z,57.00
2017-09-10T13:02:24.444Z,56.00
2017-09-10T13:04:52.061Z,56.00
2017-09-10T13:07:19.640Z,55.40
2017-09-10T13:09:47.225Z,55.00
2017-09-10T13:12:14.764Z,54.80
2017-09-10T13:14:42.647Z,54.60
2017-09-10T13:17:10.192Z,54.20
2017-09-10T13:19:37.741Z,54.10
2017-09-10T13:22:05.356Z,53.70
2017-09-10T13:24:33.696Z,53.30
2017-09-10T13:27:01.573Z,53.40
2017-09-10T13:29:29.117Z,53.20
2017-09-10T13:31:56.685Z,53.20
2017-09-10T13:34:24.273Z,53.00
2017-09-10T13:36:51.814Z,53.00
2017-09-10T13:39:19.693Z,53.10
2017-09-10T13:41:47.261Z,53.00
2017-09-10T13:44:14.847Z,52.90
2017-09-10T13:46:43.274Z,53.10
2017-09-10T13:49:10.859Z,53.00
2017-09-10T13:51:38.693Z,53.10
2017-09-10T13:54:06.255Z,53.20
2017-09-10T13:56:33.878Z,53.60
2017-09-10T13:59:01.498Z,54.10
2017-09-10T14:01:29.094Z,54.20
2017-09-10T14:03:57.061Z,54.40
2017-09-10T14:06:24.632Z,54.70
2017-09-10T14:08:52.989Z,55.30
2017-09-10T14:11:20.559Z,55.30
2017-09-10T14:13:48.096Z,55.30
2017-09-10T14:16:16.885Z,55.60
2017-09-10T14:18:44.508Z,55.70
2017-09-10T14:21:12.120Z,55.80
2017-09-10T14:23:40.713Z,56.30
2017-09-10T14:26:08.271Z,55.80
2017-09-10T14:28:36.188Z,55.80
2017-09-10T14:31:03.746Z,55.60
2017-09-10T14:33:31.330Z,56.00
2017-09-10T14:35:58.953Z,54.90
2017-09-10T14:38:27.279Z,54.30
2017-09-10T14:40:55.198Z,54.30
2017-09-10T14:43:23.535Z,52.30
2017-09-10T14:45:51.101Z,52.30
2017-09-10T14:48:19.151Z,52.00
2017-09-10T14:50:46.700Z,51.90
2017-09-10T14:53:14.786Z,52.00
2017-09-10T14:55:42.406Z,52.20
2017-09-10T14:58:09.977Z,52.20
2017-09-10T15:00:37.572Z,52.20
2017-09-10T15:03:05.123Z,52.60
2017-09-10T15:05:32.977Z,52.60
2017-09-10T15:08:00.553Z,52.90
2017-09-10T15:10:28.117Z,53.10
2017-09-10T15:12:55.693Z,53.20
2017-09-10T15:15:23.314Z,53.10
2017-09-10T15:17:51.165Z,53.40
2017-09-10T15:20:18.746Z,53.50
2017-09-10T15:22:46.288Z,53.70
2017-09-10T15:25:13.891Z,54.00
2017-09-10T15:27:41.428Z,54.10
2017-09-10T15:30:09.291Z,54.30
2017-09-10T15:32:36.860Z,54.30
2017-09-10T15:35:04.469Z,54.40
2017-09-10T15:37:32.141Z,54.70
2017-09-10T15:39:59.709Z,54.70
2017-09-10T15:42:27.688Z,54.60
2017-09-10T15:44:55.292Z,54.40
2017-09-10T15:47:22.881Z,54.30
2017-09-10T15:49:50.444Z,54.20
2017-09-10T15:52:18.103Z,54.20
2017-09-10T15:54:46.201Z,54.50
2017-09-10T15:57:13.765Z,54.90
2017-09-10T15:59:41.398Z,54.40
2017-09-10T16:02:08.991Z,54.50
2017-09-10T16:04:37.387Z,53.50
2017-09-10T16:07:05.358Z,53.40
2017-09-10T16:09:32.937Z,52.30
2017-09-10T16:12:00.528Z,51.20
2017-09-10T16:14:28.121Z,50.40
2017-09-10T16:16:55.768Z,49.90
2017-09-10T16:19:23.664Z,49.20
2017-09-10T16:21:51.246Z,48.50
2017-09-10T16:24:18.820Z,47.70
2017-09-10T16:26:46.401Z,47.00
2017-09-10T16:29:13.971Z,47.00
2017-09-10T16:31:41.908Z,47.00
2017-09-10T16:34:09.477Z,47.10
2017-09-10T16:36:37.042Z,47.20
2017-09-10T16:39:04.640Z,47.20
2017-09-10T16:41:32.190Z,47.20
2017-09-10T16:44:00.045Z,47.30
2017-09-10T16:46:27.629Z,47.60
2017-09-10T16:48:55.256Z,48.00
2017-09-10T16:51:22.851Z,48.40
2017-09-10T16:53:50.416Z,48.50
2017-09-10T16:56:18.276Z,48.50
2017-09-10T16:58:45.837Z,48.60
2017-09-10T17:01:13.476Z,49.10
2017-09-10T17:03:41.051Z,49.60
2017-09-10T17:06:08.672Z,50.20
2017-09-10T17:08:36.564Z,50.70
2017-09-10T17:11:04.220Z,51.30
2017-09-10T17:13:31.793Z,51.80
2017-09-10T17:15:59.387Z,52.20
2017-09-10T17:18:27.059Z,52.70
2017-09-10T17:20:55.743Z,53.10
2017-09-10T17:23:23.276Z,53.50
2017-09-10T17:25:50.829Z,53.80
2017-09-10T17:28:18.442Z,54.20
2017-09-10T17:30:47.369Z,54.50
2017-09-10T17:33:15.299Z,54.80
2017-09-10T17:35:42.906Z,55.00
2017-09-10T17:38:10.473Z,55.30
2017-09-10T17:40:38.075Z,55.50
2017-09-10T17:43:05.632Z,55.90
2017-09-10T17:45:41.029Z,56.60
2017-09-10T17:48:08.568Z,56.80
2017-09-10T17:50:36.100Z,56.90
2017-09-10T17:53:03.692Z,57.20
2017-09-10T17:55:36.683Z,57.50
2017-09-10T17:58:04.884Z,57.90
2017-09-10T18:00:32.648Z,58.00
2017-09-10T18:03:00.503Z,58.20
2017-09-10T18:05:30.268Z,59.10
2017-09-10T18:07:57.812Z,58.50
2017-09-10T18:10:26.551Z,59.00
2017-09-10T18:12:56.098Z,59.00
2017-09-10T18:15:23.732Z,59.00
2017-09-10T18:17:51.330Z,59.40
2017-09-10T18:20:18.978Z,59.40
2017-09-10T18:22:48.080Z,59.50
2017-09-10T18:25:16.680Z,59.80
2017-09-10T18:27:44.278Z,59.70
2017-09-10T18:30:12.735Z,59.90
2017-09-10T18:32:40.427Z,60.00
2017-09-10T18:35:08.372Z,60.10
2017-09-10T18:37:36.200Z,60.20
2017-09-10T18:40:03.899Z,60.40
2017-09-10T18:42:32.313Z,60.50
2017-09-10T18:45:03.961Z,60.60
2017-09-10T18:47:31.934Z,60.70
2017-09-10T18:49:59.585Z,60.80
2017-09-10T18:52:27.173Z,61.00
2017-09-10T18:54:54.881Z,61.10
2017-09-10T18:57:22.479Z,61.30
2017-09-10T18:59:50.488Z,61.30
2017-09-10T19:02:18.137Z,61.30
2017-09-10T19:04:49.047Z,61.50
2017-09-10T19:07:17.061Z,61.60
2017-09-10T19:09:44.881Z,61.70
2017-09-10T19:12:12.862Z,61.90
2017-09-10T19:14:40.575Z,62.00
2017-09-10T19:17:08.317Z,62.30
2017-09-10T19:19:36.008Z,62.30
2017-09-10T19:22:03.613Z,62.30
2017-09-10T19:24:31.576Z,62.50
2017-09-10T19:26:59.195Z,62.60
2017-09-10T19:29:27.950Z,62.70
2017-09-10T19:31:55.888Z,63.00
2017-09-10T19:34:23.586Z,63.00
2017-09-10T19:36:51.896Z,63.10
2017-09-10T19:39:20.135Z,63.20
2017-09-10T19:41:48.659Z,63.30
2017-09-10T19:44:16.325Z,63.40
2017-09-10T19:46:44.113Z,63.60
2017-09-10T19:49:25.938Z,63.60
2017-09-10T19:51:53.559Z,63.60
2017-09-10T19:54:21.173Z,63.80
2017-09-10T19:56:49.535Z,64.00
2017-09-10T19:59:17.175Z,64.10
2017-09-10T20:01:45.297Z,64.20
2017-09-10T20:04:12.886Z,64.40
2017-09-10T20:06:42.088Z,64.40
2017-09-10T20:09:09.745Z,64.50
2017-09-10T20:11:37.421Z,64.70
2017-09-10T20:14:05.473Z,64.70
2017-09-10T20:16:37.009Z,64.90
2017-09-10T20:19:04.873Z,65.00
2017-09-10T20:21:32.437Z,65.20
2017-09-10T20:24:00.070Z,65.50
2017-09-10T20:26:28.444Z,69.00
2017-09-10T20:29:00.486Z,68.00
2017-09-10T20:31:28.491Z,67.50
2017-09-10T20:33:56.154Z,67.40
2017-09-10T20:36:26.262Z,68.00
2017-09-10T20:38:53.973Z,67.10
2017-09-10T20:41:21.602Z,67.20
2017-09-10T20:43:49.553Z,67.40
2017-09-10T20:46:18.029Z,67.60
2017-09-10T20:48:45.663Z,67.70
2017-09-10T20:51:13.222Z,67.70
2017-09-10T20:53:40.900Z,67.90
2017-09-10T20:56:08.753Z,68.00
2017-09-10T20:58:36.413Z,68.10
2017-09-10T21:01:03.942Z,68.40
2017-09-10T21:03:31.536Z,68.20
2017-09-10T21:05:59.308Z,68.30
2017-09-10T21:08:27.353Z,68.50
2017-09-10T21:10:55.076Z,68.50
2017-09-10T21:13:22.682Z,68.70
2017-09-10T21:15:50.272Z,68.80
2017-09-10T21:18:17.825Z,68.90
2017-09-10T21:20:45.689Z,69.10
2017-09-10T21:23:13.234Z,69.10
2017-09-10T21:25:40.857Z,69.20
2017-09-10T21:28:08.454Z,69.30
2017-09-10T21:30:36.057Z,69.20
2017-09-10T21:33:04.072Z,69.20
2017-09-10T21:35:31.631Z,69.30
2017-09-10T21:38:10.801Z,69.20
2017-09-10T21:40:38.502Z,69.20
2017-09-10T21:43:06.841Z,69.20
2017-09-10T21:45:34.452Z,69.20
2017-09-10T21:48:01.990Z,69.20
2017-09-10T21:50:30.617Z,70.10
2017-09-10T21:52:58.178Z,69.50
2017-09-10T21:55:25.721Z,70.10
2017-09-10T21:57:54.034Z,69.40
2017-09-10T22:00:21.595Z,69.40
2017-09-10T22:02:49.463Z,69.50
2017-09-10T22:05:40.467Z,69.50
2017-09-10T22:08:08.283Z,69.40
2017-09-10T22:10:35.812Z,69.30
2017-09-10T22:13:03.353Z,69.40
2017-09-10T22:15:30.915Z,69.60
2017-09-10T22:17:58.443Z,69.50
2017-09-10T22:20:26.340Z,69.60
2017-09-10T22:22:53.876Z,69.70
2017-09-10T22:25:21.543Z,69.80
2017-09-10T22:27:49.086Z,69.80
2017-09-10T22:30:17.507Z,69.90
2017-09-10T22:32:45.363Z,70.00
2017-09-10T22:35:12.923Z,70.00
2017-09-10T22:37:40.461Z,70.30
2017-09-10T22:40:08.053Z,70.10
2017-09-10T22:42:35.609Z,70.10
2017-09-10T22:45:03.645Z,70.10
2017-09-10T22:47:31.982Z,70.40
2017-09-10T22:49:59.511Z,70.40
2017-09-10T22:52:27.386Z,70.50
2017-09-10T22:54:54.985Z,70.70
2017-09-10T22:57:22.830Z,70.60
2017-09-10T22:59:50.473Z,70.60
2017-09-10T23:02:18.019Z,70.70
2017-09-10T23:04:47.143Z,70.70
2017-09-10T23:07:14.809Z,70.90
2017-09-10T23:09:42.724Z,71.10
2017-09-10T23:12:10.321Z,71.00
2017-09-10T23:14:37.962Z,71.10
2017-09-10T23:17:05.996Z,71.10
2017-09-10T23:19:33.516Z,71.50
2017-09-10T23:22:02.326Z,71.30
2017-09-10T23:24:29.890Z,71.40
2017-09-10T23:26:57.440Z,71.40
2017-09-10T23:29:25.065Z,71.50
2017-09-10T23:31:52.840Z,71.50
2017-09-10T23:34:20.849Z,71.40
2017-09-10T23:36:48.420Z,71.50
2017-09-10T23:39:16.075Z,71.50
2017-09-10T23:41:43.765Z,71.70
2017-09-10T23:44:12.292Z,71.50
2017-09-10T23:46:40.234Z,71.60
2017-09-10T23:49:07.847Z,71.60
2017-09-10T23:51:35.472Z,71.70
2017-09-10T23:54:03.896Z,71.60
2017-09-10T23:56:31.451Z,71.50
2017-09-10T23:58:59.340Z,71.60
